createdAt,value
2023-05-15T00:02:10.543Z,100415.56
2023-05-15T00:04:38.342Z,100413.47
2023-05-15T00:07:06.371Z,100416.16
2023-05-15T00:09:33.889Z,100402.63
2023-05-15T00:12:01.921Z,100401.19
2023-05-15T00:14:29.479Z,100402.97
2023-05-15T00:16:57.169Z,100398.16
2023-05-15T00:19:25.234Z,100396.22
2023-05-15T00:21:53.974Z,100389.34
2023-05-15T00:24:22.572Z,100392.44
2023-05-15T00:26:50.389Z,100395.97
2023-05-15T00:29:17.942Z,100392.38
2023-05-15T00:31:45.945Z,100386.28
2023-05-15T00:34:13.513Z,100382.22
2023-05-15T00:36:41.167Z,100387.94
2023-05-15T00:39:08.641Z,100391.91
2023-05-15T00:41:37.360Z,100389.59
2023-05-15T00:44:07.022Z,100391.84
2023-05-15T00:46:36.943Z,100390.94
2023-05-15T00:49:06.756Z,100392.59
2023-05-15T00:51:35.696Z,100398.78
2023-05-15T00:54:03.852Z,100402.72
2023-05-15T00:56:33.549Z,100397.72
2023-05-15T00:59:04.073Z,100390.44
2023-05-15T01:01:34.749Z,100379.28
2023-05-15T01:04:04.360Z,100386.50
2023-05-15T01:06:32.314Z,100386.28
2023-05-15T01:09:04.218Z,100386.13
2023-05-15T01:11:36.239Z,100375.75
2023-05-15T01:14:06.375Z,100383.81
2023-05-15T01:16:35.907Z,100379.38
2023-05-15T01:19:05.270Z,100378.19
2023-05-15T01:21:36.834Z,100382.22
2023-05-15T01:24:25.897Z,100379.97
2023-05-15T01:27:15.384Z,100375.97
2023-05-15T01:30:02.090Z,100379.13
2023-05-15T01:32:49.927Z,100380.44
2023-05-15T01:35:33.013Z,100385.59
2023-05-15T01:38:13.108Z,100381.38
2023-05-15T01:40:41.930Z,100379.34
2023-05-15T01:43:15.849Z,100372.28
2023-05-15T01:45:43.660Z,100364.28
2023-05-15T01:48:13.968Z,100373.25
2023-05-15T01:50:45.289Z,100373.25
2023-05-15T01:53:12.841Z,100369.78
2023-05-15T01:55:41.816Z,100377.44
2023-05-15T01:58:10.171Z,100370.84
2023-05-15T02:00:38.830Z,100369.53
2023-05-15T02:03:07.115Z,100369.91
2023-05-15T02:05:35.428Z,100366.56
2023-05-15T02:08:04.635Z,100369.78
2023-05-15T02:10:34.229Z,100368.22
2023-05-15T02:13:02.066Z,100371.38
2023-05-15T02:15:30.678Z,100377.94
2023-05-15T02:17:58.493Z,100374.41
2023-05-15T02:20:26.024Z,100376.09
2023-05-15T02:22:53.717Z,100375.59
2023-05-15T02:25:34.827Z,100371.78
2023-05-15T02:28:07.306Z,100368.09
2023-05-15T02:30:46.238Z,100369.88
2023-05-15T02:33:31.312Z,100374.44
2023-05-15T02:36:19.922Z,100374.44
2023-05-15T02:38:55.538Z,100369.50
2023-05-15T02:41:23.863Z,100373.19
2023-05-15T02:43:55.392Z,100370.56
2023-05-15T02:46:25.501Z,100363.50
2023-05-15T02:48:55.302Z,100369.38
2023-05-15T02:51:23.236Z,100363.13
2023-05-15T02:53:52.661Z,100364.56
2023-05-15T02:56:20.872Z,100369.38
2023-05-15T02:58:49.688Z,100365.63
2023-05-15T03:01:18.358Z,100367.00
2023-05-15T03:03:46.513Z,100363.31
2023-05-15T03:06:14.586Z,100355.91
2023-05-15T03:08:42.131Z,100359.72
2023-05-15T03:11:09.643Z,100357.31
2023-05-15T03:13:38.109Z,100360.25
2023-05-15T03:16:06.445Z,100360.53
2023-05-15T03:18:34.162Z,100363.00
2023-05-15T03:21:01.731Z,100363.78
2023-05-15T03:23:31.286Z,100351.50
2023-05-15T03:25:59.000Z,100343.34
2023-05-15T03:28:26.968Z,100358.06
2023-05-15T03:30:54.506Z,100354.44
2023-05-15T03:33:22.150Z,100364.13
2023-05-15T03:35:51.224Z,100361.13
2023-05-15T03:38:20.024Z,100363.63
2023-05-15T03:40:50.869Z,100365.88
2023-05-15T03:43:18.697Z,100359.34
2023-05-15T03:45:49.647Z,100368.19
2023-05-15T03:48:17.865Z,100365.56
2023-05-15T03:50:46.790Z,100364.91
2023-05-15T03:53:14.732Z,100364.28
2023-05-15T03:55:42.389Z,100363.91
2023-05-15T03:58:09.872Z,100362.31
2023-05-15T04:00:37.874Z,100362.09
2023-05-15T04:03:06.036Z,100359.25
2023-05-15T04:05:34.127Z,100363.28
2023-05-15T04:08:01.737Z,100354.66
2023-05-15T04:10:29.498Z,100352.91
2023-05-15T04:12:57.510Z,100351.94
2023-05-15T04:15:28.700Z,100354.25
2023-05-15T04:17:56.515Z,100344.72
2023-05-15T04:20:25.174Z,100352.38
2023-05-15T04:22:53.852Z,100357.22
2023-05-15T04:25:21.426Z,100364.78
2023-05-15T04:27:49.479Z,100361.53
2023-05-15T04:30:17.326Z,100371.22
2023-05-15T04:32:45.973Z,100368.22
2023-05-15T04:35:15.511Z,100376.25
2023-05-15T04:37:45.494Z,100379.06
2023-05-15T04:40:15.093Z,100383.09
2023-05-15T04:42:42.672Z,100380.66
2023-05-15T04:45:10.356Z,100382.72
2023-05-15T04:47:38.042Z,100381.78
2023-05-15T04:50:06.868Z,100380.78
2023-05-15T04:52:34.392Z,100389.63
2023-05-15T04:55:02.276Z,100388.56
2023-05-15T04:57:30.575Z,100381.50
2023-05-15T04:59:58.559Z,100374.84
2023-05-15T05:02:26.297Z,100380.06
2023-05-15T05:04:53.888Z,100385.06
2023-05-15T05:07:21.771Z,100384.69
2023-05-15T05:09:49.378Z,100379.44
2023-05-15T05:12:16.857Z,100388.00
2023-05-15T05:14:44.993Z,100396.31
2023-05-15T05:17:12.563Z,100392.34
2023-05-15T05:19:40.606Z,100395.34
2023-05-15T05:22:08.356Z,100393.88
2023-05-15T05:24:37.548Z,100397.72
2023-05-15T05:27:05.617Z,100396.28
2023-05-15T05:29:34.399Z,100384.97
2023-05-15T05:32:02.012Z,100401.56
2023-05-15T05:34:29.606Z,100393.56
2023-05-15T05:36:57.670Z,100383.94
2023-05-15T05:39:25.658Z,100394.78
2023-05-15T05:41:53.719Z,100388.59
2023-05-15T05:44:21.339Z,100389.72
2023-05-15T05:46:49.689Z,100386.25
2023-05-15T05:49:17.198Z,100383.47
2023-05-15T05:51:47.090Z,100381.34
2023-05-15T05:54:15.583Z,100377.31
2023-05-15T05:56:43.173Z,100378.31
2023-05-15T05:59:10.915Z,100384.72
2023-05-15T06:01:38.561Z,100383.06
2023-05-15T06:04:06.191Z,100379.72
2023-05-15T06:06:34.612Z,100386.94
2023-05-15T06:09:04.124Z,100377.63
2023-05-15T06:11:32.928Z,100371.28
2023-05-15T06:14:00.784Z,100371.66
2023-05-15T06:16:28.396Z,100365.69
2023-05-15T06:18:56.440Z,100357.16
2023-05-15T06:21:24.079Z,100372.00
2023-05-15T06:23:51.733Z,100373.72
2023-05-15T06:26:19.950Z,100375.53
2023-05-15T06:28:47.468Z,100372.47
2023-05-15T06:31:15.084Z,100374.03
2023-05-15T06:33:42.595Z,100367.44
2023-05-15T06:36:10.090Z,100366.34
2023-05-15T06:38:37.867Z,100368.75
2023-05-15T06:41:05.593Z,100363.56
2023-05-15T06:43:33.766Z,100361.06
2023-05-15T06:46:01.856Z,100362.44
2023-05-15T06:48:29.753Z,100353.50
2023-05-15T06:50:57.389Z,100362.53
2023-05-15T06:53:25.431Z,100365.94
2023-05-15T06:55:53.325Z,100360.88
2023-05-15T06:58:21.442Z,100358.44
2023-05-15T07:00:49.002Z,100360.16
2023-05-15T07:03:16.856Z,100363.09
2023-05-15T07:05:45.445Z,100361.38
2023-05-15T07:08:13.439Z,100358.03
2023-05-15T07:10:41.658Z,100363.47
2023-05-15T07:13:09.684Z,100361.31
2023-05-15T07:15:37.705Z,100355.81
2023-05-15T07:18:06.343Z,100355.81
2023-05-15T07:20:35.127Z,100354.16
2023-05-15T07:23:03.576Z,100342.13
2023-05-15T07:25:31.497Z,100359.72
2023-05-15T07:27:58.947Z,100357.44
2023-05-15T07:30:27.114Z,100354.72
2023-05-15T07:32:55.079Z,100352.97
2023-05-15T07:35:23.029Z,100353.81
2023-05-15T07:37:50.839Z,100347.53
2023-05-15T07:40:18.837Z,100348.56
2023-05-15T07:42:47.093Z,100363.25
2023-05-15T07:45:14.853Z,100371.31
2023-05-15T07:47:49.039Z,100361.38
2023-05-15T07:50:17.776Z,100358.38
2023-05-15T07:52:45.743Z,100359.75
2023-05-15T07:55:13.759Z,100353.41
2023-05-15T07:57:41.531Z,100352.41
2023-05-15T08:00:12.944Z,100355.22
2023-05-15T08:02:42.657Z,100353.84
2023-05-15T08:05:10.754Z,100345.28
2023-05-15T08:07:38.681Z,100344.88
2023-05-15T08:10:07.397Z,100335.88
2023-05-15T08:12:35.392Z,100333.09
2023-05-15T08:15:03.320Z,100337.38
2023-05-15T08:17:31.281Z,100338.66
2023-05-15T08:19:58.745Z,100338.97
2023-05-15T08:22:26.716Z,100344.59
2023-05-15T08:24:54.984Z,100332.50
2023-05-15T08:27:22.700Z,100338.84
2023-05-15T08:29:50.548Z,100323.00
2023-05-15T08:32:18.857Z,100325.03
2023-05-15T08:34:46.413Z,100318.78
2023-05-15T08:37:14.305Z,100315.25
2023-05-15T08:39:41.857Z,100312.63
2023-05-15T08:42:19.975Z,100311.97
2023-05-15T08:44:48.667Z,100324.66
2023-05-15T08:47:16.791Z,100326.69
2023-05-15T08:50:17.523Z,100330.13
2023-05-15T08:52:47.480Z,100328.88
2023-05-15T08:55:16.759Z,100335.38
2023-05-15T08:57:45.677Z,100347.31
2023-05-15T09:00:14.976Z,100352.34
2023-05-15T09:02:43.283Z,100355.16
2023-05-15T09:05:11.371Z,100363.09
2023-05-15T09:07:41.799Z,100357.13
2023-05-15T09:10:11.151Z,100354.81
2023-05-15T09:12:43.576Z,100356.34
2023-05-15T09:15:18.646Z,100356.28
2023-05-15T09:17:46.405Z,100358.13
2023-05-15T09:20:34.553Z,100366.13
2023-05-15T09:23:04.572Z,100363.25
2023-05-15T09:25:40.847Z,100376.06
2023-05-15T09:28:10.751Z,100372.38
2023-05-15T09:30:39.356Z,100366.88
2023-05-15T09:33:07.234Z,100365.22
2023-05-15T09:35:37.336Z,100362.16
2023-05-15T09:38:10.612Z,100359.16
2023-05-15T09:40:39.370Z,100362.50
2023-05-15T09:43:08.076Z,100373.00
2023-05-15T09:45:35.661Z,100371.72
2023-05-15T09:48:08.619Z,100368.03
2023-05-15T09:50:40.978Z,100376.94
2023-05-15T09:53:13.219Z,100372.00
2023-05-15T09:55:42.711Z,100363.28
2023-05-15T09:58:11.836Z,100359.03
2023-05-15T10:00:47.895Z,100363.50
2023-05-15T10:03:20.080Z,100349.28
2023-05-15T10:05:49.176Z,100360.97
2023-05-15T10:08:27.233Z,100370.63
2023-05-15T10:10:58.572Z,100370.06
2023-05-15T10:13:27.418Z,100364.72
2023-05-15T10:15:57.607Z,100367.91
2023-05-15T10:18:30.562Z,100361.94
2023-05-15T10:21:01.362Z,100355.38
2023-05-15T10:23:31.444Z,100351.22
2023-05-15T10:26:08.991Z,100352.38
2023-05-15T10:28:38.048Z,100354.22
2023-05-15T10:31:07.676Z,100355.47
2023-05-15T10:33:37.505Z,100342.38
2023-05-15T10:36:05.706Z,100353.47
2023-05-15T10:38:34.723Z,100353.25
2023-05-15T10:41:15.697Z,100353.66
2023-05-15T10:43:46.685Z,100346.75
2023-05-15T10:46:15.865Z,100345.78
2023-05-15T10:48:43.866Z,100353.53
2023-05-15T10:51:39.567Z,100350.75
2023-05-15T10:54:10.163Z,100350.06
2023-05-15T10:56:39.602Z,100347.03
2023-05-15T10:59:09.663Z,100334.69
2023-05-15T11:01:39.224Z,100332.06
2023-05-15T11:04:19.322Z,100309.63
2023-05-15T11:06:48.450Z,100300.84
2023-05-15T11:09:22.089Z,100290.31
2023-05-15T11:11:52.570Z,100283.69
2023-05-15T11:14:20.871Z,100285.69
2023-05-15T11:16:54.683Z,100279.50
2023-05-15T11:19:22.484Z,100282.28
2023-05-15T11:21:59.482Z,100281.22
2023-05-15T11:24:49.331Z,100279.88
2023-05-15T11:27:21.413Z,100282.25
2023-05-15T11:30:22.205Z,100281.41
2023-05-15T11:33:00.759Z,100285.94
2023-05-15T11:35:43.301Z,100280.00
2023-05-15T11:38:11.525Z,100276.00
2023-05-15T11:40:58.610Z,100275.06
2023-05-15T11:43:27.588Z,100269.28
2023-05-15T11:46:05.875Z,100273.22
2023-05-15T11:48:35.878Z,100273.78
2023-05-15T11:51:04.451Z,100275.09
2023-05-15T11:53:33.408Z,100280.63
2023-05-15T11:56:00.978Z,100273.41
2023-05-15T11:58:28.639Z,100277.13
2023-05-15T12:00:58.231Z,100281.25
2023-05-15T12:03:34.085Z,100281.84
2023-05-15T12:06:02.981Z,100274.28
2023-05-15T12:08:38.944Z,100273.28
2023-05-15T12:11:06.529Z,100263.91
2023-05-15T12:13:34.861Z,100262.06
2023-05-15T12:16:04.008Z,100256.28
2023-05-15T12:18:32.659Z,100250.91
2023-05-15T12:21:00.496Z,100258.94
2023-05-15T12:23:28.854Z,100258.88
2023-05-15T12:26:01.006Z,100246.06
2023-05-15T12:28:30.281Z,100238.59
2023-05-15T12:30:58.713Z,100236.16
2023-05-15T12:33:26.702Z,100242.84
2023-05-15T12:35:58.956Z,100239.00
2023-05-15T12:38:28.916Z,100236.38
2023-05-15T12:40:57.253Z,100237.38
2023-05-15T12:43:26.137Z,100238.78
2023-05-15T12:45:55.361Z,100230.09
2023-05-15T12:48:24.059Z,100226.13
2023-05-15T12:50:51.746Z,100224.91
2023-05-15T12:53:22.568Z,100220.53
2023-05-15T12:55:53.584Z,100225.13
2023-05-15T12:58:48.754Z,100214.34
2023-05-15T13:01:17.717Z,100220.13
2023-05-15T13:03:45.834Z,100232.47
2023-05-15T13:06:13.536Z,100227.09
2023-05-15T13:08:42.060Z,100231.44
2023-05-15T13:11:16.730Z,100226.69
2023-05-15T13:13:48.914Z,100214.63
2023-05-15T13:16:26.064Z,100211.56
2023-05-15T13:18:53.960Z,100205.47
2023-05-15T13:21:21.838Z,100197.06
2023-05-15T13:23:49.845Z,100204.66
2023-05-15T13:26:17.876Z,100196.44
2023-05-15T13:28:45.358Z,100196.44
2023-05-15T13:31:12.954Z,100197.47
2023-05-15T13:33:40.546Z,100193.22
2023-05-15T13:36:08.919Z,100197.94
2023-05-15T13:38:37.118Z,100189.47
2023-05-15T13:41:05.441Z,100187.78
2023-05-15T13:43:33.584Z,100201.03
2023-05-15T13:46:01.591Z,100197.88
2023-05-15T13:48:29.508Z,100202.28
2023-05-15T13:50:57.408Z,100202.38
2023-05-15T13:53:24.903Z,100190.88
2023-05-15T13:55:53.381Z,100179.03
2023-05-15T13:58:21.229Z,100181.88
2023-05-15T14:00:48.840Z,100172.88
2023-05-15T14:03:16.414Z,100168.09
2023-05-15T14:05:44.522Z,100171.66
2023-05-15T14:08:12.186Z,100178.00
2023-05-15T14:10:39.743Z,100170.09
2023-05-15T14:13:07.667Z,100164.91
2023-05-15T14:15:35.144Z,100165.13
2023-05-15T14:18:03.315Z,100171.84
2023-05-15T14:20:30.900Z,100172.38
2023-05-15T14:22:58.843Z,100175.34
2023-05-15T14:25:26.391Z,100163.22
2023-05-15T14:27:54.316Z,100163.03
2023-05-15T14:30:22.035Z,100157.03
2023-05-15T14:32:49.555Z,100152.72
2023-05-15T14:35:17.291Z,100164.63
2023-05-15T14:37:45.600Z,100169.28
2023-05-15T14:40:13.509Z,100163.78
2023-05-15T14:42:41.142Z,100167.19
2023-05-15T14:45:09.709Z,100168.44
2023-05-15T14:47:37.272Z,100168.78
2023-05-15T14:50:05.711Z,100174.78
2023-05-15T14:52:33.879Z,100177.31
2023-05-15T14:55:09.274Z,100182.44
2023-05-15T14:57:38.639Z,100185.13
2023-05-15T15:00:07.349Z,100186.66
2023-05-15T15:02:35.627Z,100185.84
2023-05-15T15:05:04.535Z,100182.03
2023-05-15T15:07:59.447Z,100184.09
2023-05-15T15:10:27.870Z,100177.31
2023-05-15T15:12:56.332Z,100164.91
2023-05-15T15:15:24.789Z,100164.31
2023-05-15T15:17:53.194Z,100171.69
2023-05-15T15:20:21.929Z,100167.81
2023-05-15T15:22:49.612Z,100163.56
2023-05-15T15:25:18.030Z,100170.13
2023-05-15T15:27:46.466Z,100164.31
2023-05-15T15:30:15.418Z,100162.50
2023-05-15T15:32:45.488Z,100171.78
2023-05-15T15:35:13.850Z,100162.03
2023-05-15T15:37:41.591Z,100184.56
2023-05-15T15:40:09.786Z,100182.97
2023-05-15T15:42:38.178Z,100189.19
2023-05-15T15:45:06.863Z,100178.19
2023-05-15T15:47:34.387Z,100179.28
2023-05-15T15:50:02.987Z,100182.44
2023-05-15T15:52:30.814Z,100184.66
2023-05-15T15:54:58.718Z,100180.41
2023-05-15T15:57:28.507Z,100178.63
2023-05-15T15:59:56.440Z,100169.75
2023-05-15T16:02:24.441Z,100165.78
2023-05-15T16:04:52.038Z,100172.28
2023-05-15T16:07:20.776Z,100172.66
2023-05-15T16:09:59.878Z,100178.06
2023-05-15T16:12:35.923Z,100173.31
2023-05-15T16:15:17.503Z,100171.41
2023-05-15T16:17:54.147Z,100165.69
2023-05-15T16:20:22.897Z,100165.78
2023-05-15T16:22:50.958Z,100160.28
2023-05-15T16:25:18.953Z,100154.41
2023-05-15T16:27:46.890Z,100154.06
2023-05-15T16:30:14.579Z,100145.19
2023-05-15T16:32:42.547Z,100138.81
2023-05-15T16:35:10.212Z,100134.63
2023-05-15T16:37:37.876Z,100124.97
2023-05-15T16:40:07.044Z,100134.47
2023-05-15T16:42:38.666Z,100130.41
2023-05-15T16:45:07.662Z,100132.75
2023-05-15T16:47:37.702Z,100138.63
2023-05-15T16:50:08.797Z,100141.50
2023-05-15T16:52:38.859Z,100137.00
2023-05-15T16:55:07.241Z,100139.25
2023-05-15T16:57:34.783Z,100143.53
2023-05-15T17:00:02.875Z,100138.72
2023-05-15T17:02:30.779Z,100138.13
2023-05-15T17:04:59.029Z,100125.66
2023-05-15T17:07:26.921Z,100123.59
2023-05-15T17:09:54.954Z,100130.34
2023-05-15T17:12:23.630Z,100126.25
2023-05-15T17:14:51.287Z,100122.97
2023-05-15T17:17:19.122Z,100123.78
2023-05-15T17:19:46.818Z,100121.09
2023-05-15T17:22:15.066Z,100121.28
2023-05-15T17:27:18.484Z,100114.94
2023-05-15T17:29:47.000Z,100113.34
2023-05-15T17:32:16.952Z,100107.16
2023-05-15T17:34:45.533Z,100106.72
2023-05-15T17:37:13.613Z,100109.09
2023-05-15T17:39:41.525Z,100110.81
2023-05-15T17:42:09.166Z,100119.38
2023-05-15T17:44:37.273Z,100121.19
2023-05-15T17:47:05.314Z,100115.16
2023-05-15T17:49:34.669Z,100118.81
2023-05-15T17:52:02.683Z,100114.31
2023-05-15T17:54:30.380Z,100119.03
2023-05-15T17:56:57.854Z,100122.13
2023-05-15T17:59:26.268Z,100119.88
2023-05-15T18:01:54.760Z,100119.91
2023-05-15T18:04:22.729Z,100123.91
2023-05-15T18:06:51.520Z,100129.16
2023-05-15T18:09:23.207Z,100122.53
2023-05-15T18:11:52.679Z,100132.28
2023-05-15T18:14:20.863Z,100133.22
2023-05-15T18:16:48.358Z,100132.53
2023-05-15T18:19:16.493Z,100125.47
2023-05-15T18:21:44.081Z,100125.72
2023-05-15T18:24:11.601Z,100127.44
2023-05-15T18:26:39.156Z,100130.69
2023-05-15T18:29:06.910Z,100125.28
2023-05-15T18:31:34.890Z,100125.94
2023-05-15T18:34:02.676Z,100125.63
2023-05-15T18:36:30.902Z,100121.69
2023-05-15T18:38:58.926Z,100113.88
2023-05-15T18:41:27.181Z,100110.03
2023-05-15T18:43:55.727Z,100120.16
2023-05-15T18:46:25.766Z,100121.53
2023-05-15T18:48:53.785Z,100123.06
2023-05-15T18:51:21.783Z,100122.53
2023-05-15T18:53:49.388Z,100124.63
2023-05-15T18:56:16.923Z,100123.97
2023-05-15T18:58:47.339Z,100127.59
2023-05-15T19:01:15.021Z,100130.56
2023-05-15T19:03:42.985Z,100127.88
2023-05-15T19:06:11.620Z,100128.72
2023-05-15T19:08:39.573Z,100129.19
2023-05-15T19:11:08.842Z,100135.84
2023-05-15T19:13:36.775Z,100142.38
2023-05-15T19:16:06.152Z,100134.88
2023-05-15T19:18:33.908Z,100141.88
2023-05-15T19:21:02.040Z,100147.53
2023-05-15T19:23:29.703Z,100149.84
2023-05-15T19:25:57.678Z,100154.69
2023-05-15T19:28:26.177Z,100162.03
2023-05-15T19:30:54.058Z,100161.50
2023-05-15T19:33:22.110Z,100159.69
2023-05-15T19:35:49.739Z,100166.41
2023-05-15T19:38:19.211Z,100162.53
2023-05-15T19:40:46.998Z,100162.66
2023-05-15T19:43:14.898Z,100165.13
2023-05-15T19:45:43.871Z,100164.94
2023-05-15T19:48:12.082Z,100165.53
2023-05-15T19:50:40.144Z,100163.41
2023-05-15T19:53:08.708Z,100162.75
2023-05-15T19:55:36.264Z,100159.16
2023-05-15T19:58:04.245Z,100167.59
2023-05-15T20:00:32.487Z,100170.47
2023-05-15T20:03:01.048Z,100174.56
2023-05-15T20:05:29.558Z,100178.09
2023-05-15T20:07:57.237Z,100170.00
2023-05-15T20:10:25.550Z,100175.03
2023-05-15T20:12:53.335Z,100171.91
2023-05-15T20:15:21.240Z,100176.19
2023-05-15T20:17:48.905Z,100181.97
2023-05-15T20:20:17.804Z,100185.34
2023-05-15T20:22:46.484Z,100181.84
2023-05-15T20:25:15.173Z,100177.84
2023-05-15T20:27:42.804Z,100180.13
2023-05-15T20:30:11.862Z,100175.69
2023-05-15T20:32:39.992Z,100175.69
2023-05-15T20:35:09.141Z,100169.88
2023-05-15T20:37:42.782Z,100173.38
2023-05-15T20:40:15.736Z,100164.00
2023-05-15T20:42:43.557Z,100164.56
2023-05-15T20:45:11.452Z,100164.34
2023-05-15T20:47:40.488Z,100166.06
2023-05-15T20:50:12.877Z,100167.09
2023-05-15T20:52:41.348Z,100159.53
2023-05-15T20:55:16.654Z,100162.84
2023-05-15T20:57:47.175Z,100161.19
2023-05-15T21:00:17.201Z,100165.66
2023-05-15T21:02:46.050Z,100170.47
2023-05-15T21:05:14.830Z,100165.28
2023-05-15T21:07:42.846Z,100166.88
2023-05-15T21:10:11.615Z,100173.38
2023-05-15T21:12:39.939Z,100168.84
2023-05-15T21:15:08.034Z,100166.66
2023-05-15T21:17:36.070Z,100166.38
2023-05-15T21:20:05.000Z,100158.06
2023-05-15T21:22:34.593Z,100157.41
2023-05-15T21:25:02.220Z,100151.72
2023-05-15T21:27:29.917Z,100143.75
2023-05-15T21:29:57.478Z,100145.91
2023-05-15T21:32:25.640Z,100154.72
2023-05-15T21:34:53.545Z,100152.84
2023-05-15T21:37:21.255Z,100154.50
2023-05-15T21:39:49.307Z,100152.03
2023-05-15T21:42:16.893Z,100144.88
2023-05-15T21:44:46.478Z,100138.75
2023-05-15T21:47:13.938Z,100132.63
2023-05-15T21:49:41.836Z,100135.47
2023-05-15T21:52:09.561Z,100133.28
2023-05-15T21:54:37.088Z,100131.97
2023-05-15T21:57:04.924Z,100135.94
2023-05-15T21:59:32.433Z,100138.25
2023-05-15T22:02:00.618Z,100134.28
2023-05-15T22:04:30.243Z,100132.16
2023-05-15T22:06:58.189Z,100126.34
2023-05-15T22:09:26.029Z,100133.13
2023-05-15T22:11:53.655Z,100130.50
2023-05-15T22:14:21.716Z,100123.03
2023-05-15T22:16:49.392Z,100129.84
2023-05-15T22:19:31.519Z,100123.38
2023-05-15T22:22:03.611Z,100127.31
2023-05-15T22:24:31.235Z,100123.00
2023-05-15T22:26:59.774Z,100119.72
2023-05-15T22:29:27.897Z,100112.88
2023-05-15T22:31:56.391Z,100115.56
2023-05-15T22:34:25.944Z,100122.16
2023-05-15T22:39:28.296Z,100116.00
2023-05-15T22:41:56.033Z,100118.81
2023-05-15T22:44:23.755Z,100117.66
2023-05-15T22:46:51.611Z,100122.28
2023-05-15T22:49:23.705Z,100114.84
2023-05-15T22:51:55.927Z,100110.50
2023-05-15T22:54:24.638Z,100120.59
2023-05-15T22:56:53.065Z,100120.13
2023-05-15T22:59:20.996Z,100114.22
2023-05-15T23:01:49.357Z,100108.09
2023-05-15T23:04:17.947Z,100105.75
2023-05-15T23:06:45.801Z,100101.75
2023-05-15T23:09:14.181Z,100101.47
2023-05-15T23:11:42.423Z,100104.78
2023-05-15T23:14:10.020Z,100104.44
2023-05-15T23:16:37.756Z,100103.25
2023-05-15T23:19:05.969Z,100113.88
2023-05-15T23:21:33.949Z,100108.03
2023-05-15T23:24:01.575Z,100103.19
2023-05-15T23:26:29.776Z,100106.38
2023-05-15T23:28:57.366Z,100111.19
2023-05-15T23:31:26.194Z,100111.38
2023-05-15T23:33:53.819Z,100106.88
2023-05-15T23:36:21.557Z,100099.94
2023-05-15T23:38:49.165Z,100096.09
2023-05-15T23:41:17.383Z,100088.91
2023-05-15T23:43:44.892Z,100084.59
2023-05-15T23:46:12.510Z,100084.91
2023-05-15T23:48:40.124Z,100086.88
2023-05-15T23:51:08.016Z,100085.22
2023-05-15T23:53:36.813Z,100074.25
2023-05-15T23:56:05.195Z,100070.91
2023-05-15T23:58:33.967Z,100073.56
